Breesport, New York
Current Conditions -  °F | °C
As of 6:53 AM on Saturday 25 Oct 2014 (Local Time) from KELM Reporting Station
Overcast Overcast  
Wind Chill: 41°   Ceiling: 5000
Heat Index: 41°   Visibility: 10mi
Dew Point: 37°   Wind: 3mph
Humidity: 86%   Direction: 270°W
Pressure: 29.88"   Gusts: NA
Location:  42.17°N, 76.73°W
Report Text: KELM 251053Z 27003KT 10SM OVC050 05/03 A2988 RMK AO2 SLP122 T00500028
Loading
Personal Weather Stations






























Interactive Weather Map
Tropical Storm Tracking
New forecast layout! Learn more

10-Day Weather Forecast

Advertisements
Track Severe Weather on mobile